createdAt,value
2023-04-19T00:00:12.262Z,9.32
2023-04-19T00:02:41.554Z,9.13
2023-04-19T00:05:13.654Z,9.15
2023-04-19T00:07:41.388Z,10.25
2023-04-19T00:10:09.230Z,9.77
2023-04-19T00:12:36.658Z,9.35
2023-04-19T00:15:04.427Z,9.32
2023-04-19T00:17:31.870Z,10.85
2023-04-19T00:19:59.255Z,11.48
2023-04-19T00:22:29.208Z,9.45
2023-04-19T00:24:58.937Z,9.98
2023-04-19T00:27:26.546Z,9.40
2023-04-19T00:29:53.916Z,12.45
2023-04-19T00:32:21.245Z,9.43
2023-04-19T00:34:53.529Z,9.45
2023-04-19T00:37:21.064Z,10.30
2023-04-19T00:39:48.364Z,8.98
2023-04-19T00:42:17.979Z,9.82
2023-04-19T00:44:47.587Z,9.23
2023-04-19T00:47:15.061Z,9.25
2023-04-19T00:49:42.403Z,10.35
2023-04-19T00:52:12.930Z,9.65
2023-04-19T00:54:43.405Z,10.80
2023-04-19T00:57:13.184Z,9.90
2023-04-19T00:59:40.679Z,9.02
2023-04-19T01:02:09.145Z,10.35
2023-04-19T01:04:37.141Z,9.57
2023-04-19T01:07:04.823Z,9.80
2023-04-19T01:09:32.132Z,10.40
2023-04-19T01:12:02.090Z,10.32
2023-04-19T01:14:29.381Z,9.80
2023-04-19T01:16:57.785Z,9.63
2023-04-19T01:19:27.268Z,11.00
2023-04-19T01:21:56.405Z,11.82
2023-04-19T01:24:23.741Z,10.48
2023-04-19T01:26:51.017Z,10.13
2023-04-19T01:29:18.910Z,9.75
2023-04-19T01:31:51.348Z,11.18
2023-04-19T01:34:18.697Z,10.45
2023-04-19T01:36:46.312Z,10.23
2023-04-19T01:39:18.344Z,10.05
2023-04-19T01:41:45.638Z,11.90
2023-04-19T01:44:13.004Z,10.48
2023-04-19T01:46:42.755Z,11.07
2023-04-19T01:49:12.584Z,9.93
2023-04-19T01:51:40.468Z,9.82
2023-04-19T01:54:07.783Z,9.48
2023-04-19T01:56:35.126Z,10.70
2023-04-19T01:59:02.512Z,9.85
2023-04-19T02:01:30.581Z,9.75
2023-04-19T02:03:57.971Z,9.68
2023-04-19T02:06:26.952Z,12.45
2023-04-19T02:08:56.967Z,10.45
2023-04-19T02:11:24.229Z,9.30
2023-04-19T02:13:53.845Z,9.40
2023-04-19T02:16:21.171Z,9.35
2023-04-19T02:18:49.318Z,11.75
2023-04-19T02:21:16.674Z,10.07
2023-04-19T02:23:46.222Z,10.07
2023-04-19T02:26:15.887Z,12.95
2023-04-19T02:28:43.180Z,10.90
2023-04-19T02:31:10.495Z,9.85
2023-04-19T02:33:37.772Z,10.13
2023-04-19T02:36:05.328Z,10.57
2023-04-19T02:38:32.637Z,10.00
2023-04-19T02:41:04.353Z,9.80
2023-04-19T02:43:34.167Z,9.93
2023-04-19T02:46:02.139Z,10.85
2023-04-19T02:48:29.577Z,10.75
2023-04-19T02:50:56.953Z,10.68
2023-04-19T02:53:26.417Z,10.93
2023-04-19T02:55:53.754Z,10.73
2023-04-19T02:58:21.002Z,10.60
2023-04-19T03:00:48.417Z,11.35
2023-04-19T03:03:16.143Z,10.95
2023-04-19T03:05:43.558Z,10.63
2023-04-19T03:08:11.536Z,10.55
2023-04-19T03:10:38.884Z,10.77
2023-04-19T03:13:08.419Z,10.23
2023-04-19T03:15:35.668Z,10.57
2023-04-19T03:18:05.219Z,12.02
2023-04-19T03:20:34.890Z,10.40
2023-04-19T03:23:02.446Z,11.63
2023-04-19T03:25:29.852Z,10.80
2023-04-19T03:27:59.661Z,11.40
2023-04-19T03:30:26.911Z,12.18
2023-04-19T03:32:54.233Z,11.27
2023-04-19T03:35:22.454Z,11.43
2023-04-19T03:37:49.696Z,11.73
2023-04-19T03:40:18.313Z,12.82
2023-04-19T03:42:47.849Z,11.38
2023-04-19T03:45:15.126Z,11.18
2023-04-19T03:47:42.425Z,11.45
2023-04-19T03:50:10.045Z,11.13
2023-04-19T03:52:37.421Z,12.13
2023-04-19T03:55:07.314Z,12.38
2023-04-19T03:57:34.701Z,12.95
2023-04-19T04:00:01.954Z,13.20
2023-04-19T04:02:29.529Z,12.90
2023-04-19T04:04:56.985Z,11.93
2023-04-19T04:07:24.752Z,14.43
2023-04-19T04:09:52.083Z,12.38
2023-04-19T04:12:19.558Z,12.73
2023-04-19T04:14:46.762Z,12.27
2023-04-19T04:17:16.415Z,11.63
2023-04-19T04:19:46.028Z,11.90
2023-04-19T04:22:13.273Z,12.07
2023-04-19T04:24:41.917Z,13.70
2023-04-19T04:27:14.941Z,13.27
2023-04-19T04:29:43.922Z,12.60
2023-04-19T04:32:11.480Z,13.80
2023-04-19T04:34:39.564Z,12.75
2023-04-19T04:37:08.808Z,12.52
2023-04-19T04:39:39.385Z,14.10
2023-04-19T04:42:10.162Z,13.52
2023-04-19T04:44:38.962Z,14.20
2023-04-19T04:47:08.607Z,13.50
2023-04-19T04:49:36.407Z,14.50
2023-04-19T04:52:06.631Z,12.70
2023-04-19T04:54:36.364Z,13.45
2023-04-19T04:57:04.076Z,13.48
2023-04-19T04:59:31.611Z,13.35
2023-04-19T05:01:59.130Z,14.82
2023-04-19T05:04:26.696Z,16.95
2023-04-19T05:06:54.146Z,15.98
2023-04-19T05:09:23.902Z,14.48
2023-04-19T05:11:51.192Z,15.75
2023-04-19T05:14:18.466Z,14.25
2023-04-19T05:16:46.295Z,15.82
2023-04-19T05:19:13.638Z,16.17
2023-04-19T05:21:40.858Z,16.10
2023-04-19T05:24:10.044Z,16.20
2023-04-19T05:26:37.284Z,16.85
2023-04-19T05:29:04.543Z,15.85
2023-04-19T05:31:34.863Z,17.65
2023-04-19T05:34:04.381Z,19.15
2023-04-19T05:36:33.959Z,19.30
2023-04-19T05:39:01.428Z,20.95
2023-04-19T05:41:31.109Z,20.25
2023-04-19T05:43:58.408Z,18.63
2023-04-19T05:46:25.712Z,19.23
2023-04-19T05:48:52.974Z,22.60
2023-04-19T05:51:20.314Z,19.92
2023-04-19T05:53:47.625Z,21.42
2023-04-19T05:56:14.936Z,19.38
2023-04-19T05:58:45.109Z,18.00
2023-04-19T06:01:12.680Z,18.58
2023-04-19T06:03:40.276Z,17.98
2023-04-19T06:06:08.528Z,17.65
2023-04-19T06:08:36.111Z,22.00
2023-04-19T06:11:15.189Z,18.40
2023-04-19T06:13:50.941Z,18.33
2023-04-19T06:16:20.961Z,19.42
2023-04-19T06:18:48.322Z,19.10
2023-04-19T06:21:18.176Z,18.45
2023-04-19T06:23:49.013Z,18.30
2023-04-19T06:26:18.956Z,19.48
2023-04-19T06:28:46.296Z,20.40
2023-04-19T06:31:18.587Z,21.40
2023-04-19T06:33:46.836Z,20.95
2023-04-19T06:36:16.442Z,20.67
2023-04-19T06:38:44.710Z,21.27
2023-04-19T06:41:12.658Z,21.92
2023-04-19T06:43:42.924Z,18.88
2023-04-19T06:46:10.472Z,20.38
2023-04-19T06:48:38.407Z,20.63
2023-04-19T06:51:05.982Z,22.55
2023-04-19T06:53:33.348Z,20.38
2023-04-19T06:56:04.735Z,21.80
2023-04-19T06:58:34.480Z,20.77
2023-04-19T07:01:05.119Z,19.35
2023-04-19T07:03:36.393Z,20.63
2023-04-19T07:06:04.018Z,24.80
2023-04-19T07:08:48.263Z,20.95
2023-04-19T07:11:16.951Z,22.05
2023-04-19T07:13:46.681Z,20.85
2023-04-19T07:16:14.934Z,22.80
2023-04-19T07:18:42.441Z,20.58
2023-04-19T07:21:10.560Z,20.48
2023-04-19T07:23:40.484Z,22.73
2023-04-19T07:26:10.386Z,22.52
2023-04-19T07:28:39.746Z,24.73
2023-04-19T07:31:18.334Z,20.17
2023-04-19T07:33:47.357Z,23.52
2023-04-19T07:36:14.714Z,23.92
2023-04-19T07:38:42.047Z,23.05
2023-04-19T07:41:11.819Z,25.92
2023-04-19T07:43:39.393Z,23.13
2023-04-19T07:46:16.441Z,22.80
2023-04-19T07:48:43.791Z,22.70
2023-04-19T07:51:17.636Z,21.75
2023-04-19T07:53:47.748Z,22.85
2023-04-19T07:56:15.672Z,22.15
2023-04-19T07:58:43.886Z,26.77
2023-04-19T08:01:11.598Z,24.20
2023-04-19T08:03:39.108Z,23.10
2023-04-19T08:06:12.826Z,22.52
2023-04-19T08:08:40.148Z,22.88
2023-04-19T08:11:07.472Z,22.50
2023-04-19T08:13:34.935Z,21.35
2023-04-19T08:18:34.062Z,20.55
2023-04-19T08:21:01.434Z,21.25
2023-04-19T08:23:34.905Z,19.60
2023-04-19T08:26:08.841Z,20.58
2023-04-19T08:28:38.680Z,21.92
2023-04-19T08:31:08.930Z,21.75
2023-04-19T08:33:38.819Z,18.90
2023-04-19T08:36:07.192Z,18.65
2023-04-19T08:38:34.466Z,19.92
2023-04-19T08:41:01.843Z,20.20
2023-04-19T08:43:33.619Z,21.85
2023-04-19T08:46:04.758Z,21.83
2023-04-19T08:48:36.766Z,19.55
2023-04-19T08:51:05.966Z,20.98
2023-04-19T08:53:37.091Z,19.33
2023-04-19T08:56:17.897Z,22.98
2023-04-19T08:59:01.032Z,19.83
2023-04-19T09:01:44.758Z,18.20
2023-04-19T09:04:34.822Z,17.52
2023-04-19T09:07:02.059Z,16.63
2023-04-19T09:12:01.539Z,18.13
2023-04-19T09:14:31.534Z,18.75
2023-04-19T09:17:16.774Z,16.45
2023-04-19T09:19:48.430Z,18.98
2023-04-19T09:22:18.284Z,18.00
2023-04-19T09:25:27.715Z,17.35
2023-04-19T09:27:37.353Z,19.20
2023-04-19T09:30:17.516Z,17.02
2023-04-19T09:32:51.013Z,18.08
2023-04-19T09:35:18.424Z,19.40
2023-04-19T09:38:06.440Z,17.20
2023-04-19T09:40:35.021Z,18.20
2023-04-19T09:43:22.947Z,18.95
2023-04-19T09:45:53.324Z,17.15
2023-04-19T09:48:23.459Z,18.30
2023-04-19T09:51:05.743Z,20.23
2023-04-19T09:53:40.696Z,18.33
2023-04-19T09:56:12.905Z,17.88
2023-04-19T09:58:52.586Z,18.65
2023-04-19T10:01:29.797Z,21.85
2023-04-19T10:04:03.519Z,21.23
2023-04-19T10:06:58.217Z,19.73
2023-04-19T10:09:26.612Z,19.90
2023-04-19T10:12:03.735Z,20.52
2023-04-19T10:14:40.432Z,18.92
2023-04-19T10:17:07.756Z,18.08
2023-04-19T10:19:37.551Z,16.10
2023-04-19T10:22:07.852Z,12.63
2023-04-19T10:24:35.115Z,11.75
2023-04-19T10:27:14.864Z,7.75
2023-04-19T10:29:55.763Z,5.78
2023-04-19T10:32:25.027Z,5.00
2023-04-19T10:34:56.244Z,3.85
2023-04-19T10:37:26.020Z,4.22
2023-04-19T10:39:53.409Z,5.43
2023-04-19T10:42:20.715Z,3.63
2023-04-19T10:45:32.171Z,4.05
2023-04-19T10:48:04.834Z,5.82
2023-04-19T10:51:24.229Z,4.72
2023-04-19T10:54:05.087Z,5.25
2023-04-19T10:56:35.367Z,6.50
2023-04-19T10:59:08.510Z,5.10
2023-04-19T11:01:46.295Z,5.72
2023-04-19T11:04:21.501Z,4.22
2023-04-19T11:06:52.366Z,4.22
2023-04-19T11:09:34.738Z,3.50
2023-04-19T11:12:02.295Z,5.43
2023-04-19T11:14:33.165Z,2.85
2023-04-19T11:17:04.482Z,2.78
2023-04-19T11:19:31.792Z,5.43
2023-04-19T11:22:01.323Z,3.97
2023-04-19T11:24:31.045Z,2.80
2023-04-19T11:26:58.314Z,2.83
2023-04-19T11:29:25.642Z,2.50
2023-04-19T11:31:54.901Z,3.25
2023-04-19T11:34:27.286Z,3.00
2023-04-19T11:36:54.628Z,2.67
2023-04-19T11:39:24.551Z,4.30
2023-04-19T11:41:51.845Z,3.85
2023-04-19T11:44:20.907Z,4.13
2023-04-19T11:46:59.240Z,4.72
2023-04-19T11:49:36.344Z,4.68
2023-04-19T11:52:06.648Z,3.55
2023-04-19T11:54:34.182Z,4.13
2023-04-19T11:57:06.931Z,4.93
2023-04-19T11:59:36.224Z,5.03
2023-04-19T12:02:06.500Z,4.72
2023-04-19T12:04:34.173Z,4.45
2023-04-19T12:07:03.205Z,4.30
2023-04-19T12:09:32.859Z,4.10
2023-04-19T12:12:03.081Z,4.40
2023-04-19T12:14:32.311Z,4.35
2023-04-19T12:17:05.650Z,5.07
2023-04-19T12:19:44.578Z,4.38
2023-04-19T12:22:28.798Z,5.00
2023-04-19T12:24:56.086Z,4.60
2023-04-19T12:27:26.477Z,4.60
2023-04-19T12:29:54.006Z,5.45
2023-04-19T12:32:26.616Z,4.60
2023-04-19T12:34:56.551Z,5.05
2023-04-19T12:37:24.572Z,4.53
2023-04-19T12:39:51.833Z,4.75
2023-04-19T12:42:21.495Z,4.63
2023-04-19T12:44:51.272Z,5.45
2023-04-19T12:47:18.911Z,5.65
2023-04-19T12:49:46.309Z,5.65
2023-04-19T12:52:13.626Z,5.30
2023-04-19T12:54:41.479Z,5.18
2023-04-19T12:57:08.829Z,5.07
2023-04-19T12:59:36.281Z,7.40
2023-04-19T13:02:03.660Z,7.25
2023-04-19T13:04:31.240Z,5.40
2023-04-19T13:07:01.406Z,4.13
2023-04-19T13:09:29.083Z,4.63
2023-04-19T13:11:56.455Z,5.78
2023-04-19T13:14:24.447Z,5.03
2023-04-19T13:16:54.101Z,5.18
2023-04-19T13:19:21.688Z,4.85
2023-04-19T13:21:51.332Z,5.10
2023-04-19T13:24:18.882Z,5.40
2023-04-19T13:26:46.422Z,5.30
2023-04-19T13:29:13.908Z,7.35
2023-04-19T13:31:43.621Z,6.53
2023-04-19T13:34:11.208Z,6.85
2023-04-19T13:36:41.113Z,9.27
2023-04-19T13:39:10.900Z,12.20
2023-04-19T13:41:38.287Z,7.40
2023-04-19T13:44:07.855Z,6.38
2023-04-19T13:46:37.651Z,5.82
2023-04-19T13:49:05.446Z,6.20
2023-04-19T13:51:46.917Z,5.90
2023-04-19T13:54:19.614Z,4.82
2023-04-19T13:56:52.140Z,4.07
2023-04-19T13:59:20.873Z,4.45
2023-04-19T14:01:48.172Z,5.22
2023-04-19T14:04:16.012Z,4.57
2023-04-19T14:06:46.001Z,3.80
2023-04-19T14:09:15.709Z,3.92
2023-04-19T14:11:43.293Z,4.38
2023-04-19T14:14:18.079Z,4.13
2023-04-19T14:16:48.726Z,3.50
2023-04-19T14:19:16.006Z,3.90
2023-04-19T14:21:43.309Z,4.30
2023-04-19T14:24:10.516Z,4.03
2023-04-19T14:26:37.781Z,3.95
2023-04-19T14:29:06.142Z,4.63
2023-04-19T14:31:35.076Z,5.25
2023-04-19T14:34:04.938Z,4.53
2023-04-19T14:36:32.429Z,4.18
2023-04-19T14:38:59.750Z,5.32
2023-04-19T14:41:27.011Z,4.00
2023-04-19T14:43:56.162Z,4.20
2023-04-19T14:46:23.445Z,3.95
2023-04-19T14:48:50.864Z,4.00
2023-04-19T14:51:18.157Z,4.50
2023-04-19T14:53:45.588Z,5.30
2023-04-19T14:56:12.885Z,4.28
2023-04-19T14:58:40.420Z,4.88
2023-04-19T15:01:14.176Z,4.53
2023-04-19T15:03:44.464Z,4.40
2023-04-19T15:06:11.927Z,7.72
2023-04-19T15:08:39.258Z,7.45
2023-04-19T15:11:11.359Z,6.70
2023-04-19T15:13:38.620Z,4.80
2023-04-19T15:16:07.710Z,5.00
2023-04-19T15:18:37.953Z,4.25
2023-04-19T15:21:11.120Z,4.50
2023-04-19T15:23:38.334Z,4.53
2023-04-19T15:26:07.995Z,4.70
2023-04-19T15:28:36.212Z,4.57
2023-04-19T15:31:05.185Z,4.95
2023-04-19T15:33:33.165Z,4.78
2023-04-19T15:36:01.695Z,4.60
2023-04-19T15:38:31.222Z,4.30
2023-04-19T15:40:59.430Z,5.95
2023-04-19T15:43:31.611Z,4.40
2023-04-19T15:45:59.133Z,5.78
2023-04-19T15:48:26.875Z,5.15
2023-04-19T15:50:54.192Z,6.63
2023-04-19T15:53:21.470Z,5.28
2023-04-19T15:55:48.829Z,5.15
2023-04-19T15:58:16.154Z,5.50
2023-04-19T16:00:43.520Z,6.15
2023-04-19T16:03:12.528Z,7.93
2023-04-19T16:05:40.236Z,5.82
2023-04-19T16:08:11.791Z,6.20
2023-04-19T16:10:39.388Z,8.13
2023-04-19T16:13:07.157Z,5.70
2023-04-19T16:15:34.419Z,6.28
2023-04-19T16:18:01.734Z,5.53
2023-04-19T16:20:29.162Z,6.00
2023-04-19T16:23:02.769Z,5.32
2023-04-19T16:25:31.127Z,6.72
2023-04-19T16:27:58.736Z,5.47
2023-04-19T16:30:27.002Z,5.35
2023-04-19T16:32:55.386Z,5.93
2023-04-19T16:35:23.703Z,4.72
2023-04-19T16:37:51.308Z,5.22
2023-04-19T16:40:21.050Z,4.65
2023-04-19T16:42:50.648Z,5.90
2023-04-19T16:45:20.097Z,5.70
2023-04-19T16:47:49.959Z,5.60
2023-04-19T16:50:17.267Z,5.40
2023-04-19T16:52:44.510Z,6.05
2023-04-19T16:55:11.854Z,5.88
2023-04-19T16:57:39.100Z,4.78
2023-04-19T17:00:07.044Z,5.57
2023-04-19T17:02:34.506Z,4.80
2023-04-19T17:05:02.268Z,5.85
2023-04-19T17:07:31.943Z,5.50
2023-04-19T17:09:59.192Z,7.07
2023-04-19T17:12:26.431Z,6.68
2023-04-19T17:14:56.261Z,6.40
2023-04-19T17:17:24.517Z,6.88
2023-04-19T17:19:56.030Z,6.32
2023-04-19T17:22:28.500Z,6.35
2023-04-19T17:24:57.383Z,7.00
2023-04-19T17:27:24.996Z,7.07
2023-04-19T17:29:52.265Z,7.82
2023-04-19T17:32:19.603Z,6.32
2023-04-19T17:34:46.834Z,7.00
2023-04-19T17:37:14.143Z,6.95
2023-04-19T17:39:41.437Z,6.75
2023-04-19T17:42:08.738Z,6.47
2023-04-19T17:44:36.651Z,6.55
2023-04-19T17:47:06.100Z,6.65
2023-04-19T17:49:33.627Z,5.65
2023-04-19T17:52:00.881Z,6.15
2023-04-19T17:54:30.667Z,5.95
2023-04-19T17:56:59.462Z,6.25
2023-04-19T17:59:26.766Z,5.90
2023-04-19T18:02:01.385Z,6.22
2023-04-19T18:04:31.091Z,5.97
2023-04-19T18:06:58.491Z,6.13
2023-04-19T18:09:25.806Z,6.03
2023-04-19T18:11:53.212Z,6.55
2023-04-19T18:14:20.489Z,5.93
2023-04-19T18:16:47.911Z,6.07
2023-04-19T18:19:15.600Z,6.00
2023-04-19T18:21:47.319Z,6.57
2023-04-19T18:24:15.449Z,6.63
2023-04-19T18:26:43.135Z,6.35
2023-04-19T18:29:16.229Z,8.85
2023-04-19T18:31:46.445Z,6.53
2023-04-19T18:34:13.920Z,6.90
2023-04-19T18:36:43.741Z,6.25
2023-04-19T18:39:13.985Z,5.63
2023-04-19T18:41:41.469Z,5.97
2023-04-19T18:44:39.152Z,7.25
2023-04-19T18:49:28.001Z,5.53
2023-04-19T18:51:57.474Z,5.63
2023-04-19T18:54:24.869Z,5.82
2023-04-19T18:59:25.486Z,5.82
2023-04-19T19:01:53.567Z,6.20
2023-04-19T19:06:54.742Z,5.60
2023-04-19T19:09:25.525Z,6.53
2023-04-19T19:11:56.923Z,6.10
2023-04-19T19:14:26.644Z,6.43
2023-04-19T19:16:57.368Z,5.22
2023-04-19T19:19:24.746Z,5.10
2023-04-19T19:21:54.428Z,6.43
2023-04-19T19:24:21.677Z,5.57
2023-04-19T19:26:49.048Z,5.32
2023-04-19T19:29:17.174Z,6.60
2023-04-19T19:31:44.565Z,5.53
2023-04-19T19:34:25.756Z,11.52
2023-04-19T19:36:58.588Z,16.92
2023-04-19T19:39:28.006Z,16.92
2023-04-19T19:42:05.953Z,12.95
2023-04-19T19:44:36.522Z,10.93
2023-04-19T19:47:10.331Z,9.43
2023-04-19T19:52:10.953Z,14.07
2023-04-19T19:54:38.228Z,23.65
2023-04-19T19:58:07.153Z,22.13
2023-04-19T20:00:18.041Z,16.42
2023-04-19T20:02:54.606Z,13.68
2023-04-19T20:05:26.433Z,10.55
2023-04-19T20:08:06.161Z,11.00
2023-04-19T20:10:33.599Z,7.30
2023-04-19T20:13:01.603Z,7.53
2023-04-19T20:15:30.183Z,10.35
2023-04-19T20:17:57.622Z,8.02
2023-04-19T20:20:24.960Z,7.90
2023-04-19T20:22:52.418Z,8.90
2023-04-19T20:25:22.074Z,7.07
2023-04-19T20:27:51.832Z,9.02
2023-04-19T20:30:19.182Z,8.65
2023-04-19T20:32:50.456Z,10.82
2023-04-19T20:35:18.240Z,10.20
2023-04-19T20:37:47.222Z,8.23
2023-04-19T20:40:16.183Z,9.32
2023-04-19T20:42:46.894Z,7.43
2023-04-19T20:45:14.520Z,7.90
2023-04-19T20:47:42.825Z,8.15
2023-04-19T20:50:10.926Z,8.50
2023-04-19T20:52:38.380Z,7.85
2023-04-19T20:55:11.171Z,7.65
2023-04-19T20:57:38.456Z,7.35
2023-04-19T21:00:09.853Z,8.30
2023-04-19T21:02:37.302Z,9.73
2023-04-19T21:05:07.377Z,7.68
2023-04-19T21:07:34.696Z,8.60
2023-04-19T21:10:01.995Z,9.18
2023-04-19T21:12:29.323Z,9.18
2023-04-19T21:14:56.535Z,8.10
2023-04-19T21:17:26.244Z,9.02
2023-04-19T21:19:53.580Z,14.45
2023-04-19T21:22:21.019Z,10.35
2023-04-19T21:24:48.302Z,10.60
2023-04-19T21:27:18.115Z,12.80
2023-04-19T21:29:47.877Z,10.93
2023-04-19T21:32:15.332Z,9.23
2023-04-19T21:34:46.101Z,11.20
2023-04-19T21:37:16.452Z,8.67
2023-04-19T21:39:46.181Z,8.40
2023-04-19T21:42:13.613Z,9.07
2023-04-19T21:44:41.063Z,9.93
2023-04-19T21:47:09.789Z,9.18
2023-04-19T21:49:39.574Z,9.55
2023-04-19T21:52:07.735Z,9.63
2023-04-19T21:54:35.223Z,10.00
2023-04-19T21:57:02.921Z,9.45
2023-04-19T21:59:33.111Z,10.27
2023-04-19T22:02:01.897Z,10.55
2023-04-19T22:04:32.595Z,9.70
2023-04-19T22:07:03.085Z,9.82
2023-04-19T22:09:31.049Z,9.70
2023-04-19T22:12:01.207Z,9.15
2023-04-19T22:14:28.566Z,9.35
2023-04-19T22:16:56.538Z,10.85
2023-04-19T22:19:24.801Z,10.13
2023-04-19T22:21:53.523Z,10.30
2023-04-19T22:24:23.806Z,10.30
2023-04-19T22:26:53.682Z,12.05
2023-04-19T22:29:21.036Z,9.55
2023-04-19T22:31:48.487Z,10.77
2023-04-19T22:34:16.093Z,9.63
2023-04-19T22:36:43.371Z,9.73
2023-04-19T22:39:13.874Z,10.75
2023-04-19T22:41:43.385Z,12.10
2023-04-19T22:44:10.748Z,11.07
2023-04-19T22:46:38.116Z,10.50
2023-04-19T22:49:05.663Z,11.70
2023-04-19T22:51:36.771Z,10.10
2023-04-19T22:54:06.700Z,10.38
2023-04-19T22:56:34.056Z,11.10
2023-04-19T22:59:01.373Z,11.82
2023-04-19T23:01:33.767Z,12.70
2023-04-19T23:04:01.101Z,11.60
2023-04-19T23:06:29.080Z,10.15
2023-04-19T23:09:00.616Z,10.30
2023-04-19T23:11:32.234Z,11.40
2023-04-19T23:14:01.988Z,11.82
2023-04-19T23:16:29.230Z,11.00
2023-04-19T23:19:00.638Z,11.20
2023-04-19T23:21:30.020Z,13.00
2023-04-19T23:23:58.201Z,11.73
2023-04-19T23:26:26.072Z,11.35
2023-04-19T23:28:53.383Z,11.32
2023-04-19T23:31:20.743Z,12.25
2023-04-19T23:33:50.900Z,11.07
2023-04-19T23:36:18.123Z,12.95
2023-04-19T23:38:45.657Z,11.65
2023-04-19T23:41:17.539Z,11.55
2023-04-19T23:43:48.350Z,11.30
2023-04-19T23:46:15.738Z,10.87
2023-04-19T23:48:43.143Z,11.40
2023-04-19T23:51:12.541Z,11.93
2023-04-19T23:53:42.273Z,11.73
2023-04-19T23:56:12.424Z,11.80
2023-04-19T23:58:41.925Z,11.90
